createdAt,value
2022-12-25T00:00:25.178Z,99.90
2022-12-25T00:04:10.345Z,99.90
2022-12-25T00:07:52.418Z,99.90
2022-12-25T00:11:34.308Z,99.90
2022-12-25T00:15:16.957Z,99.90
2022-12-25T00:19:00.799Z,99.90
2022-12-25T00:22:42.496Z,99.90
2022-12-25T00:26:26.831Z,99.90
2022-12-25T00:30:09.841Z,99.90
2022-12-25T00:33:53.981Z,99.90
2022-12-25T00:37:35.968Z,99.90
2022-12-25T00:41:42.413Z,99.90
2022-12-25T00:45:24.604Z,99.90
2022-12-25T00:49:07.157Z,99.90
2022-12-25T00:52:57.011Z,99.90
2022-12-25T00:56:40.069Z,99.90
2022-12-25T01:00:24.053Z,99.90
2022-12-25T01:04:09.650Z,99.90
2022-12-25T01:07:56.396Z,99.90
2022-12-25T01:11:38.427Z,99.90
2022-12-25T01:15:24.518Z,99.90
2022-12-25T01:19:07.238Z,99.90
2022-12-25T01:22:49.315Z,99.90
2022-12-25T01:26:31.457Z,99.90
2022-12-25T01:30:13.366Z,99.90
2022-12-25T01:33:55.154Z,99.90
2022-12-25T01:37:36.885Z,99.90
2022-12-25T01:41:21.021Z,99.90
2022-12-25T01:45:27.030Z,99.90
2022-12-25T01:49:20.904Z,99.90
2022-12-25T01:53:03.116Z,99.90
2022-12-25T01:56:48.038Z,99.90
2022-12-25T02:00:29.899Z,99.90
2022-12-25T02:04:39.324Z,99.90
2022-12-25T02:08:23.193Z,99.90
2022-12-25T02:12:06.159Z,99.90
2022-12-25T02:16:09.602Z,99.90
2022-12-25T02:20:00.097Z,99.90
2022-12-25T02:24:01.883Z,99.90
2022-12-25T02:28:09.638Z,99.90
2022-12-25T02:32:07.768Z,99.90
2022-12-25T02:35:53.471Z,99.90
2022-12-25T02:40:00.566Z,99.90
2022-12-25T02:44:03.119Z,99.90
2022-12-25T02:48:03.794Z,99.90
2022-12-25T02:52:10.355Z,99.90
2022-12-25T02:56:12.821Z,99.90
2022-12-25T03:00:17.472Z,99.90
2022-12-25T03:04:23.475Z,99.90
2022-12-25T03:08:10.206Z,99.90
2022-12-25T03:12:01.975Z,99.90
2022-12-25T03:16:02.772Z,99.90
2022-12-25T03:20:03.395Z,99.90
2022-12-25T03:24:09.503Z,99.90
2022-12-25T03:27:54.220Z,99.90
2022-12-25T03:31:49.899Z,99.90
2022-12-25T03:35:46.448Z,99.90
2022-12-25T03:39:53.898Z,99.90
2022-12-25T03:43:57.052Z,99.90
2022-12-25T03:48:06.592Z,99.90
2022-12-25T03:52:08.721Z,99.90
2022-12-25T03:56:10.524Z,99.90
2022-12-25T04:00:11.091Z,99.90
2022-12-25T04:04:11.471Z,99.90
2022-12-25T04:08:11.958Z,99.90
2022-12-25T04:12:12.336Z,99.90
2022-12-25T04:16:13.710Z,99.90
2022-12-25T04:20:14.062Z,99.90
2022-12-25T04:24:14.481Z,99.90
2022-12-25T04:28:19.963Z,99.90
2022-12-25T04:32:20.256Z,99.90
2022-12-25T04:36:12.395Z,99.90
2022-12-25T04:39:54.144Z,99.90
2022-12-25T04:43:36.071Z,99.90
2022-12-25T04:47:17.822Z,99.90
2022-12-25T04:51:13.644Z,99.90
2022-12-25T04:54:55.348Z,99.90
2022-12-25T04:58:37.163Z,99.90
2022-12-25T05:02:19.049Z,99.90
2022-12-25T05:06:02.122Z,99.90
2022-12-25T05:09:43.850Z,99.90
2022-12-25T05:13:25.838Z,99.90
2022-12-25T05:17:08.083Z,99.90
2022-12-25T05:20:54.713Z,99.90
2022-12-25T05:24:36.435Z,99.90
2022-12-25T05:28:18.227Z,99.90
2022-12-25T05:31:59.989Z,99.90
2022-12-25T05:35:41.735Z,99.90
2022-12-25T05:39:24.103Z,99.90
2022-12-25T05:43:06.061Z,99.90
2022-12-25T05:46:56.808Z,99.90
2022-12-25T05:50:43.934Z,99.90
2022-12-25T05:54:25.713Z,99.90
2022-12-25T05:58:09.584Z,99.90
2022-12-25T06:01:51.330Z,99.90
2022-12-25T06:05:33.145Z,99.90
2022-12-25T06:09:14.871Z,99.90
2022-12-25T06:12:56.718Z,99.90
2022-12-25T06:16:38.726Z,99.90
2022-12-25T06:20:20.526Z,99.90
2022-12-25T06:24:02.437Z,99.90
2022-12-25T06:27:44.321Z,99.90
2022-12-25T06:31:26.159Z,99.90
2022-12-25T06:35:08.318Z,99.90
2022-12-25T06:38:50.612Z,99.90
2022-12-25T06:42:32.331Z,99.90
2022-12-25T06:46:14.076Z,99.90
2022-12-25T06:49:55.865Z,99.90
2022-12-25T06:53:40.343Z,99.90
2022-12-25T06:57:22.690Z,99.90
2022-12-25T07:01:15.193Z,99.90
2022-12-25T07:04:57.639Z,99.90
2022-12-25T07:08:39.348Z,99.90
2022-12-25T07:12:23.734Z,99.90
2022-12-25T07:16:07.663Z,99.90
2022-12-25T07:19:50.023Z,99.90
2022-12-25T07:23:31.767Z,99.90
2022-12-25T07:27:13.609Z,99.90
2022-12-25T07:30:55.684Z,99.90
2022-12-25T07:34:37.393Z,99.90
2022-12-25T07:38:19.123Z,99.90
2022-12-25T07:42:00.985Z,99.90
2022-12-25T07:45:43.011Z,99.90
2022-12-25T07:49:24.788Z,99.90
2022-12-25T07:53:06.494Z,99.90
2022-12-25T07:56:52.316Z,99.90
2022-12-25T08:00:34.091Z,99.90
2022-12-25T08:04:16.100Z,99.90
2022-12-25T08:07:58.348Z,99.90
2022-12-25T08:11:44.041Z,99.90
2022-12-25T08:15:25.744Z,99.90
2022-12-25T08:19:08.874Z,99.90
2022-12-25T08:22:50.585Z,99.90
2022-12-25T08:26:32.325Z,99.90
2022-12-25T08:30:14.158Z,99.90
2022-12-25T08:33:57.965Z,99.90
2022-12-25T08:37:39.726Z,99.90
2022-12-25T08:41:21.643Z,99.90
2022-12-25T08:45:03.611Z,99.90
2022-12-25T08:48:47.400Z,99.90
2022-12-25T08:52:29.561Z,99.90
2022-12-25T08:56:11.924Z,99.90
2022-12-25T08:59:53.620Z,99.90
2022-12-25T09:03:35.705Z,99.90
2022-12-25T09:07:17.466Z,99.90
2022-12-25T09:11:03.506Z,99.90
2022-12-25T09:14:45.305Z,99.90
2022-12-25T09:18:27.011Z,99.90
2022-12-25T09:22:08.749Z,99.90
2022-12-25T09:25:50.480Z,99.90
2022-12-25T09:29:32.194Z,99.90
2022-12-25T09:33:13.915Z,99.90
2022-12-25T09:36:55.658Z,99.90
2022-12-25T09:40:37.390Z,99.90
2022-12-25T09:44:35.914Z,99.90
2022-12-25T09:48:18.381Z,99.90
2022-12-25T09:52:12.549Z,99.90
2022-12-25T09:56:11.373Z,99.90
2022-12-25T09:59:55.435Z,99.90
2022-12-25T10:03:56.173Z,99.90
2022-12-25T10:07:48.166Z,99.90
2022-12-25T10:11:51.200Z,99.90
2022-12-25T10:15:40.400Z,99.90
2022-12-25T10:19:34.906Z,99.90
2022-12-25T10:23:22.750Z,99.90
2022-12-25T10:27:15.087Z,99.90
2022-12-25T10:31:01.643Z,99.90
2022-12-25T10:34:43.678Z,99.90
2022-12-25T10:38:25.545Z,99.90
2022-12-25T10:42:29.524Z,99.90
2022-12-25T10:46:13.583Z,99.90
2022-12-25T10:49:56.551Z,99.90
2022-12-25T10:53:43.283Z,99.90
2022-12-25T10:57:29.216Z,99.90
2022-12-25T11:01:12.509Z,99.90
2022-12-25T11:05:28.627Z,99.90
2022-12-25T11:09:16.538Z,99.90
2022-12-25T11:12:59.906Z,99.90
2022-12-25T11:16:41.888Z,99.90
2022-12-25T11:20:24.289Z,99.90
2022-12-25T11:24:17.628Z,99.90
2022-12-25T11:28:04.518Z,99.90
2022-12-25T11:31:47.343Z,99.90
2022-12-25T11:35:34.526Z,99.90
2022-12-25T11:39:28.125Z,99.90
2022-12-25T11:43:23.864Z,99.90
2022-12-25T11:47:45.770Z,99.90
2022-12-25T11:52:04.718Z,99.90
2022-12-25T11:55:55.176Z,99.90
2022-12-25T11:59:59.470Z,99.90
2022-12-25T12:03:43.609Z,99.90
2022-12-25T12:07:29.104Z,99.90
2022-12-25T12:11:22.259Z,99.90
2022-12-25T12:15:07.899Z,99.90
2022-12-25T12:18:50.853Z,99.90
2022-12-25T12:22:32.729Z,99.90
2022-12-25T12:26:23.910Z,99.90
2022-12-25T12:30:08.090Z,99.90
2022-12-25T12:33:54.436Z,99.90
2022-12-25T12:37:39.175Z,99.90
2022-12-25T12:41:23.132Z,99.90
2022-12-25T12:45:18.368Z,99.90
2022-12-25T12:49:11.417Z,99.90
2022-12-25T12:52:53.592Z,99.90
2022-12-25T12:56:35.305Z,99.90
2022-12-25T13:00:18.429Z,99.90
2022-12-25T13:04:40.151Z,99.90
2022-12-25T13:08:33.841Z,99.90
2022-12-25T13:12:17.086Z,99.90
2022-12-25T13:15:58.746Z,99.90
2022-12-25T13:19:43.554Z,99.90
2022-12-25T13:23:32.375Z,99.90
2022-12-25T13:27:25.651Z,99.90
2022-12-25T13:31:13.684Z,99.90
2022-12-25T13:34:56.190Z,99.90
2022-12-25T13:38:42.749Z,99.90
2022-12-25T13:42:28.355Z,99.90
2022-12-25T13:46:15.064Z,99.90
2022-12-25T13:49:59.676Z,99.90
2022-12-25T13:53:41.426Z,99.90
2022-12-25T13:57:29.119Z,99.90
2022-12-25T14:01:15.246Z,99.90
2022-12-25T14:04:57.173Z,99.90
2022-12-25T14:08:39.084Z,99.90
2022-12-25T14:12:21.828Z,99.90
2022-12-25T14:16:04.167Z,99.90
2022-12-25T14:19:45.859Z,99.90
2022-12-25T14:23:47.148Z,99.90
2022-12-25T14:27:32.263Z,99.90
2022-12-25T14:31:14.049Z,99.90
2022-12-25T14:34:59.926Z,99.90
2022-12-25T14:38:44.009Z,99.90
2022-12-25T14:42:29.423Z,99.90
2022-12-25T14:46:26.770Z,99.90
2022-12-25T14:50:24.452Z,99.90
2022-12-25T14:54:15.919Z,99.90
2022-12-25T14:58:10.122Z,99.90
2022-12-25T15:01:58.920Z,99.90
2022-12-25T15:05:40.830Z,99.90
2022-12-25T15:09:22.644Z,99.90
2022-12-25T15:13:04.777Z,99.90
2022-12-25T15:16:50.344Z,99.90
2022-12-25T15:20:34.987Z,99.90
2022-12-25T15:24:17.240Z,99.90
2022-12-25T15:27:59.314Z,99.90
2022-12-25T15:31:42.058Z,99.90
2022-12-25T15:35:24.638Z,99.90
2022-12-25T15:39:06.352Z,99.90
2022-12-25T15:42:48.934Z,99.90
2022-12-25T15:46:31.229Z,99.90
2022-12-25T15:50:12.963Z,99.90
2022-12-25T15:53:54.802Z,99.90
2022-12-25T15:57:38.977Z,99.90
2022-12-25T16:01:21.533Z,99.90
2022-12-25T16:05:10.171Z,99.90
2022-12-25T16:08:52.281Z,99.90
2022-12-25T16:12:33.987Z,99.90
2022-12-25T16:16:15.673Z,99.90
2022-12-25T16:19:57.440Z,99.90
2022-12-25T16:23:39.166Z,99.90
2022-12-25T16:27:22.194Z,99.90
2022-12-25T16:31:04.170Z,99.90
2022-12-25T16:34:48.178Z,99.90
2022-12-25T16:38:31.586Z,99.90
2022-12-25T16:42:13.210Z,99.90
2022-12-25T16:45:57.146Z,99.70
2022-12-25T16:49:39.223Z,99.90
2022-12-25T16:53:20.983Z,99.90
2022-12-25T16:57:02.696Z,99.90
2022-12-25T17:00:49.065Z,99.90
2022-12-25T17:04:31.275Z,99.90
2022-12-25T17:08:13.049Z,99.90
2022-12-25T17:11:54.746Z,99.90
2022-12-25T17:15:36.481Z,99.90
2022-12-25T17:19:20.526Z,99.90
2022-12-25T17:23:02.241Z,99.90
2022-12-25T17:26:44.678Z,99.90
2022-12-25T17:30:26.452Z,99.90
2022-12-25T17:34:10.399Z,99.90
2022-12-25T17:37:52.117Z,99.90
2022-12-25T17:41:34.177Z,99.90
2022-12-25T17:45:15.992Z,99.90
2022-12-25T17:48:59.591Z,99.90
2022-12-25T17:52:41.296Z,99.90
2022-12-25T17:56:24.040Z,99.90
2022-12-25T18:00:06.404Z,99.90
2022-12-25T18:03:48.546Z,99.90
2022-12-25T18:07:30.279Z,99.90
2022-12-25T18:11:18.487Z,99.90
2022-12-25T18:15:00.612Z,99.90
2022-12-25T18:18:49.520Z,99.90
2022-12-25T18:22:37.062Z,99.90
2022-12-25T18:26:20.009Z,99.90
2022-12-25T18:30:01.996Z,99.90
2022-12-25T18:33:44.814Z,99.90
2022-12-25T18:37:33.160Z,99.90
2022-12-25T18:41:20.244Z,99.90
2022-12-25T18:45:01.971Z,99.90
2022-12-25T18:48:44.449Z,99.90
2022-12-25T18:52:47.536Z,99.90
2022-12-25T18:56:28.147Z,99.90
2022-12-25T19:00:10.394Z,99.90
2022-12-25T19:03:57.189Z,99.90
2022-12-25T19:08:01.671Z,99.70
2022-12-25T19:11:47.103Z,99.30
2022-12-25T19:15:28.878Z,99.30
2022-12-25T19:19:10.704Z,99.30
2022-12-25T19:22:52.489Z,99.30
2022-12-25T19:26:35.950Z,99.30
2022-12-25T19:30:18.341Z,99.20
2022-12-25T19:34:00.161Z,99.10
2022-12-25T19:37:41.899Z,99.00
2022-12-25T19:41:23.736Z,98.90
2022-12-25T19:45:06.226Z,98.90
2022-12-25T19:48:48.305Z,99.10
2022-12-25T19:52:30.020Z,99.30
2022-12-25T19:56:11.764Z,99.20
2022-12-25T19:59:53.473Z,99.50
2022-12-25T20:03:40.174Z,99.10
2022-12-25T20:07:27.702Z,99.10
2022-12-25T20:11:09.437Z,99.00
2022-12-25T20:14:51.162Z,99.00
2022-12-25T20:18:33.132Z,99.10
2022-12-25T20:22:14.924Z,99.00
2022-12-25T20:26:00.986Z,99.30
2022-12-25T20:29:42.867Z,98.90
2022-12-25T20:33:24.841Z,98.90
2022-12-25T20:37:06.596Z,98.90
2022-12-25T20:41:25.194Z,98.90
2022-12-25T20:44:50.049Z,98.90
2022-12-25T20:48:31.907Z,98.90
2022-12-25T20:52:13.657Z,98.90
2022-12-25T20:55:55.348Z,98.90
2022-12-25T20:59:37.971Z,98.80
2022-12-25T21:03:19.863Z,98.80
2022-12-25T21:07:02.553Z,98.80
2022-12-25T21:10:46.213Z,98.80
2022-12-25T21:14:29.558Z,98.70
2022-12-25T21:18:11.375Z,98.70
2022-12-25T21:21:53.074Z,98.90
2022-12-25T21:25:34.830Z,98.80
2022-12-25T21:29:17.732Z,98.80
2022-12-25T21:33:18.109Z,98.80
2022-12-25T21:36:59.847Z,98.90
2022-12-25T21:40:41.636Z,98.80
2022-12-25T21:44:23.338Z,98.90
2022-12-25T21:48:05.325Z,98.90
2022-12-25T21:52:05.716Z,99.00
2022-12-25T21:55:58.746Z,99.00
2022-12-25T21:59:40.451Z,99.10
2022-12-25T22:03:23.999Z,99.00
2022-12-25T22:07:18.224Z,99.10
2022-12-25T22:11:03.989Z,99.50
2022-12-25T22:14:55.400Z,99.40
2022-12-25T22:18:56.407Z,99.40
2022-12-25T22:22:38.744Z,99.40
2022-12-25T22:26:21.126Z,99.30
2022-12-25T22:30:04.231Z,99.30
2022-12-25T22:33:45.943Z,99.40
2022-12-25T22:37:27.668Z,99.50
2022-12-25T22:41:09.412Z,99.40
2022-12-25T22:44:51.197Z,99.70
2022-12-25T22:48:33.446Z,99.40
2022-12-25T22:52:15.235Z,99.40
2022-12-25T22:55:56.940Z,99.40
2022-12-25T22:59:38.739Z,99.40
2022-12-25T23:03:20.735Z,99.40
2022-12-25T23:07:02.775Z,99.40
2022-12-25T23:10:44.568Z,99.50
2022-12-25T23:14:40.120Z,99.50
2022-12-25T23:18:40.463Z,99.50
2022-12-25T23:22:41.363Z,99.50
2022-12-25T23:26:24.337Z,99.50
2022-12-25T23:30:09.263Z,99.80
2022-12-25T23:33:51.244Z,99.50
2022-12-25T23:37:33.113Z,99.50
2022-12-25T23:41:14.887Z,99.50
2022-12-25T23:44:56.679Z,99.50
2022-12-25T23:48:38.419Z,99.50
2022-12-25T23:52:21.014Z,99.40
2022-12-25T23:56:03.096Z,99.40
2022-12-25T23:59:45.502Z,99.70
